Time;durP1;ratioP1;P1;durP2;ratioP2;P2;SDS_P1;SDS_P2;PMS_P1;PMS_P2;Temp;Humidity;BMP_temperature;BMP_pressure;BME280_temperature;BME280_humidity;BME280_pressure;Samples;Min_cycle;Max_cycle;Signal;HPM_P1;HPM_P2
2024/02/16 00:00:31;;;;;;;7.82;7.05;;;;;;;;;;4893868;29;20048;-71
2024/02/16 00:02:59;;;;;;;8.45;7.05;;;;;;;;;;4893506;29;20028;-70
2024/02/16 00:05:26;;;;;;;8.15;6.57;;;;;;;;;;4892444;29;20044;-72
2024/02/16 00:07:53;;;;;;;7.30;6.50;;;;;;;;;;4892391;29;20117;-71
2024/02/16 00:10:20;;;;;;;7.18;6.47;;;;;;;;;;4893644;29;20032;-72
2024/02/16 00:12:45;;;;;;;8.75;7.55;;;;;;;;;;4893306;29;20060;-71
2024/02/16 00:15:12;;;;;;;8.63;6.57;;;;;;;;;;4892396;29;20111;-70
2024/02/16 00:17:38;;;;;;;7.45;5.40;;;;;;;;;;4892923;29;20045;-71
2024/02/16 00:20:07;;;;;;;13.95;8.63;;;;;;;;;;4892323;29;20045;-70
2024/02/16 00:22:33;;;;;;;10.30;7.45;;;;;;;;;;4893423;29;20036;-71
2024/02/16 00:24:59;;;;;;;15.48;9.10;;;;;;;;;;4893277;29;20041;-71
2024/02/16 00:27:25;;;;;;;11.15;8.82;;;;;;;;;;4892656;29;20598;-71
2024/02/16 00:29:50;;;;;;;10.70;8.20;;;;;;;;;;4893277;29;20474;-71
2024/02/16 00:32:16;;;;;;;8.35;6.57;;;;;;;;;;4891914;29;20407;-71
2024/02/16 00:34:43;;;;;;;10.82;7.90;;;;;;;;;;4893163;29;20176;-70
2024/02/16 00:37:10;;;;;;;11.23;7.95;;;;;;;;;;4891437;29;20051;-72
2024/02/16 00:39:36;;;;;;;8.55;7.70;;;;;;;;;;4894284;29;20143;-71
2024/02/16 00:42:02;;;;;;;6.18;5.57;;;;;;;;;;4893878;29;20064;-71
2024/02/16 00:44:28;;;;;;;13.23;8.57;;;;;;;;;;4892857;29;20044;-72
2024/02/16 00:46:53;;;;;;;7.63;6.82;;;;;;;;;;4907659;29;20043;-72
2024/02/16 00:49:19;;;;;;;6.80;5.22;;;;;;;;;;4877218;29;20067;-72
2024/02/16 00:51:46;;;;;;;8.73;7.35;;;;;;;;;;4892805;29;20063;-73
2024/02/16 00:54:12;;;;;;;6.63;6.00;;;;;;;;;;4894119;29;20051;-71
2024/02/16 00:56:38;;;;;;;8.43;6.47;;;;;;;;;;4892836;29;20044;-72
2024/02/16 00:59:04;;;;;;;7.70;7.00;;;;;;;;;;4893739;29;20056;-71
2024/02/16 01:01:30;;;;;;;7.80;7.05;;;;;;;;;;4892373;29;20043;-71
2024/02/16 01:03:56;;;;;;;12.10;9.25;;;;;;;;;;4892108;29;20048;-72
2024/02/16 01:06:22;;;;;;;7.40;6.18;;;;;;;;;;4892764;29;20039;-70
2024/02/16 01:08:48;;;;;;;6.63;5.05;;;;;;;;;;4892420;29;20044;-71
2024/02/16 01:11:13;;;;;;;6.68;5.90;;;;;;;;;;4894063;29;20496;-71
2024/02/16 01:13:39;;;;;;;6.45;5.85;;;;;;;;;;4892539;29;20061;-72
2024/02/16 01:16:05;;;;;;;7.25;6.47;;;;;;;;;;4893186;29;20739;-72
2024/02/16 01:18:32;;;;;;;7.93;6.57;;;;;;;;;;4892747;29;20132;-72
2024/02/16 01:20:58;;;;;;;13.38;7.70;;;;;;;;;;4909924;29;20064;-72
2024/02/16 01:23:24;;;;;;;9.18;5.88;;;;;;;;;;4896675;29;20519;-72
2024/02/16 01:25:50;;;;;;;7.53;6.18;;;;;;;;;;4895495;29;20051;-71
2024/02/16 01:28:16;;;;;;;13.02;6.80;;;;;;;;;;4878671;29;20142;-71
2024/02/16 01:30:42;;;;;;;6.82;5.68;;;;;;;;;;4896504;29;20044;-72
2024/02/16 01:33:08;;;;;;;7.65;6.85;;;;;;;;;;4861300;29;20044;-73
2024/02/16 01:35:34;;;;;;;9.65;6.65;;;;;;;;;;4877889;29;20551;-72
2024/02/16 01:38:01;;;;;;;5.88;5.35;;;;;;;;;;4876620;29;20823;-72
2024/02/16 01:40:27;;;;;;;7.00;6.40;;;;;;;;;;4894421;29;20048;-72
2024/02/16 01:42:53;;;;;;;9.77;7.80;;;;;;;;;;4897358;29;20033;-72
2024/02/16 01:45:19;;;;;;;7.72;6.93;;;;;;;;;;4897455;29;20128;-72
2024/02/16 01:47:46;;;;;;;7.63;6.03;;;;;;;;;;4895510;29;20472;-72
2024/02/16 01:50:12;;;;;;;9.18;7.88;;;;;;;;;;4895093;29;20494;-71
2024/02/16 01:52:38;;;;;;;10.25;8.18;;;;;;;;;;4896085;29;20060;-73
2024/02/16 01:55:04;;;;;;;9.57;7.25;;;;;;;;;;4895786;29;20127;-72
2024/02/16 01:57:33;;;;;;;8.20;5.25;;;;;;;;;;4884241;29;20069;-72
2024/02/16 01:59:59;;;;;;;8.88;7.82;;;;;;;;;;4860523;29;20864;-72
2024/02/16 02:02:27;;;;;;;4.25;3.95;;;;;;;;;;4875899;29;20044;-73
2024/02/16 02:04:53;;;;;;;9.43;6.95;;;;;;;;;;4877015;29;20045;-72
2024/02/16 02:07:19;;;;;;;3.70;3.40;;;;;;;;;;4883052;29;20047;-72
2024/02/16 02:09:44;;;;;;;11.05;5.65;;;;;;;;;;4894633;29;20044;-72
2024/02/16 02:12:10;;;;;;;11.63;6.30;;;;;;;;;;4895287;29;20108;-71
2024/02/16 02:14:37;;;;;;;6.82;6.20;;;;;;;;;;4910147;29;20056;-71
2024/02/16 02:17:03;;;;;;;6.93;4.65;;;;;;;;;;4894655;29;20068;-71
2024/02/16 02:19:29;;;;;;;12.25;8.13;;;;;;;;;;4895580;29;20053;-72
2024/02/16 02:21:55;;;;;;;9.73;6.40;;;;;;;;;;4894290;29;20071;-72
2024/02/16 02:24:21;;;;;;;5.28;4.68;;;;;;;;;;4910050;29;20048;-71
2024/02/16 02:26:47;;;;;;;5.85;5.25;;;;;;;;;;4891200;29;20040;-71
2024/02/16 02:29:13;;;;;;;6.35;4.88;;;;;;;;;;4891285;29;20084;-70
2024/02/16 02:31:39;;;;;;;7.28;6.15;;;;;;;;;;4875846;29;20037;-71
2024/02/16 02:34:05;;;;;;;5.85;3.78;;;;;;;;;;4876872;29;20040;-71
2024/02/16 02:36:32;;;;;;;8.45;5.90;;;;;;;;;;4876109;29;20041;-71
2024/02/16 02:38:58;;;;;;;10.93;7.20;;;;;;;;;;4875672;29;20056;-71
2024/02/16 02:41:24;;;;;;;10.90;6.55;;;;;;;;;;4875731;29;20060;-71
2024/02/16 02:43:50;;;;;;;7.18;5.95;;;;;;;;;;4876691;29;20091;-71
2024/02/16 02:46:16;;;;;;;11.18;7.00;;;;;;;;;;4876778;29;20077;-71
2024/02/16 02:48:43;;;;;;;8.30;7.03;;;;;;;;;;4874670;29;20057;-71
2024/02/16 02:51:09;;;;;;;6.80;6.20;;;;;;;;;;4876338;29;20045;-72
2024/02/16 02:53:35;;;;;;;6.97;6.28;;;;;;;;;;4874856;29;20033;-71
2024/02/16 02:56:01;;;;;;;5.13;4.65;;;;;;;;;;4876256;29;20043;-71
2024/02/16 02:58:27;;;;;;;7.93;7.13;;;;;;;;;;4892116;29;20100;-71
2024/02/16 03:00:54;;;;;;;6.35;5.82;;;;;;;;;;4893644;29;20047;-72
2024/02/16 03:03:20;;;;;;;7.63;5.93;;;;;;;;;;4894872;29;20044;-71
2024/02/16 03:05:46;;;;;;;7.07;6.35;;;;;;;;;;4893709;29;20052;-72
2024/02/16 03:08:12;;;;;;;5.13;4.57;;;;;;;;;;4892990;29;20056;-71
2024/02/16 03:10:39;;;;;;;8.30;7.47;;;;;;;;;;4874700;29;20041;-71
2024/02/16 03:13:06;;;;;;;5.72;5.22;;;;;;;;;;4875507;29;20112;-72
2024/02/16 03:15:33;;;;;;;7.15;6.43;;;;;;;;;;4876320;29;20037;-71
2024/02/16 03:17:59;;;;;;;7.60;6.47;;;;;;;;;;4874957;29;20141;-70
2024/02/16 03:20:25;;;;;;;8.82;6.18;;;;;;;;;;4875066;29;20552;-72
2024/02/16 03:22:51;;;;;;;9.20;7.13;;;;;;;;;;4875760;29;20043;-71
2024/02/16 03:25:16;;;;;;;17.58;5.20;;;;;;;;;;4876313;29;20045;-71
2024/02/16 03:27:42;;;;;;;6.60;5.78;;;;;;;;;;4885906;29;20072;-71
2024/02/16 03:30:08;;;;;;;7.75;6.50;;;;;;;;;;4893665;29;20036;-73
2024/02/16 03:32:34;;;;;;;6.13;4.20;;;;;;;;;;4894034;29;20119;-73
2024/02/16 03:35:00;;;;;;;6.05;5.43;;;;;;;;;;4891680;29;20139;-72
2024/02/16 03:37:26;;;;;;;8.65;6.90;;;;;;;;;;4892775;29;20075;-74
2024/02/16 03:39:53;;;;;;;9.00;5.07;;;;;;;;;;4891768;29;20534;-72
2024/02/16 03:42:19;;;;;;;5.30;4.90;;;;;;;;;;4892450;29;20043;-72
2024/02/16 03:44:45;;;;;;;5.32;4.82;;;;;;;;;;4892704;29;20044;-72
2024/02/16 03:47:11;;;;;;;5.57;4.93;;;;;;;;;;4868908;29;20047;-72
2024/02/16 03:49:37;;;;;;;6.25;5.65;;;;;;;;;;4855139;29;20700;-72
2024/02/16 03:52:03;;;;;;;6.75;5.70;;;;;;;;;;4880125;29;20037;-72
2024/02/16 03:54:29;;;;;;;5.90;5.40;;;;;;;;;;4874666;29;20031;-72
2024/02/16 03:56:55;;;;;;;6.55;5.93;;;;;;;;;;4873622;29;20045;-73
2024/02/16 03:59:21;;;;;;;14.35;8.45;;;;;;;;;;4874657;29;20059;-72
2024/02/16 04:01:47;;;;;;;10.27;5.80;;;;;;;;;;4874736;29;20127;-73
2024/02/16 04:04:13;;;;;;;6.80;5.53;;;;;;;;;;4858174;29;20828;-72
2024/02/16 04:06:39;;;;;;;13.57;7.32;;;;;;;;;;4873097;29;20116;-73
2024/02/16 04:09:08;;;;;;;5.65;4.78;;;;;;;;;;4889279;29;20037;-72
2024/02/16 04:11:35;;;;;;;7.93;4.80;;;;;;;;;;4888818;29;20044;-72
2024/02/16 04:14:01;;;;;;;11.93;7.93;;;;;;;;;;4873906;29;20535;-74
2024/02/16 04:16:28;;;;;;;4.35;4.05;;;;;;;;;;4840486;29;20038;-73
2024/02/16 04:18:55;;;;;;;5.60;5.10;;;;;;;;;;4873790;29;20541;-74
2024/02/16 04:21:21;;;;;;;18.52;3.20;;;;;;;;;;4886313;29;20067;-76
2024/02/16 04:23:46;;;;;;;5.43;4.72;;;;;;;;;;4907757;29;20036;-74
2024/02/16 04:26:13;;;;;;;13.23;7.68;;;;;;;;;;4892346;29;20032;-73
2024/02/16 04:28:39;;;;;;;13.63;8.82;;;;;;;;;;4877397;29;20049;-73
2024/02/16 04:31:05;;;;;;;11.52;6.88;;;;;;;;;;4881330;29;20029;-74
2024/02/16 04:33:30;;;;;;;7.95;5.53;;;;;;;;;;4885410;29;20033;-74
2024/02/16 04:35:56;;;;;;;5.03;4.60;;;;;;;;;;4881290;29;20041;-73
2024/02/16 04:38:22;;;;;;;8.40;5.70;;;;;;;;;;4902907;29;20048;-74
2024/02/16 04:40:48;;;;;;;6.00;5.43;;;;;;;;;;4894006;29;20108;-74
2024/02/16 04:43:14;;;;;;;10.85;7.38;;;;;;;;;;4893524;29;20088;-73
2024/02/16 04:45:40;;;;;;;7.63;5.70;;;;;;;;;;4889840;29;20040;-74
2024/02/16 04:48:06;;;;;;;12.43;9.90;;;;;;;;;;4890756;29;20045;-74
2024/02/16 04:50:32;;;;;;;17.77;10.82;;;;;;;;;;4892234;29;20496;-73
2024/02/16 04:52:58;;;;;;;13.25;7.07;;;;;;;;;;4907591;29;20043;-74
2024/02/16 04:55:24;;;;;;;7.68;5.43;;;;;;;;;;4895303;29;20066;-74
2024/02/16 04:57:51;;;;;;;6.82;6.18;;;;;;;;;;4896285;29;20135;-74
2024/02/16 05:00:17;;;;;;;8.50;5.82;;;;;;;;;;4896377;29;20045;-74
2024/02/16 05:02:42;;;;;;;15.00;6.68;;;;;;;;;;4897667;29;20487;-74
2024/02/16 05:05:08;;;;;;;10.85;7.18;;;;;;;;;;4897495;29;20044;-74
2024/02/16 05:07:36;;;;;;;18.58;9.25;;;;;;;;;;4896516;29;20088;-75
2024/02/16 05:10:02;;;;;;;10.40;7.90;;;;;;;;;;4897021;29;20071;-74
2024/02/16 05:12:29;;;;;;;5.03;4.55;;;;;;;;;;4895835;29;20140;-74
2024/02/16 05:14:55;;;;;;;14.13;8.93;;;;;;;;;;4897665;29;20040;-74
2024/02/16 05:17:22;;;;;;;10.00;6.93;;;;;;;;;;4894884;29;20061;-73
2024/02/16 05:19:48;;;;;;;11.38;8.95;;;;;;;;;;4895891;29;20056;-74
2024/02/16 05:22:15;;;;;;;10.20;7.10;;;;;;;;;;4897015;29;20044;-74
2024/02/16 05:24:40;;;;;;;9.55;8.00;;;;;;;;;;4880460;29;20496;-76
2024/02/16 05:27:06;;;;;;;12.70;9.38;;;;;;;;;;4895531;29;20039;-74
2024/02/16 05:29:32;;;;;;;9.88;9.07;;;;;;;;;;4896429;29;20188;-74
2024/02/16 05:31:58;;;;;;;11.43;9.48;;;;;;;;;;4895322;29;20028;-74
2024/02/16 05:34:24;;;;;;;6.82;6.13;;;;;;;;;;4895262;29;20142;-74
2024/02/16 05:36:50;;;;;;;8.18;7.43;;;;;;;;;;4894547;29;20419;-74
2024/02/16 05:39:26;;;;;;;9.30;8.30;;;;;;;;;;4880150;29;20048;-74
2024/02/16 05:41:53;;;;;;;8.98;7.95;;;;;;;;;;4899460;29;20040;-74
2024/02/16 05:44:19;;;;;;;8.38;6.45;;;;;;;;;;4899093;29;20048;-74
2024/02/16 05:46:46;;;;;;;9.85;7.70;;;;;;;;;;4895468;29;20044;-74
2024/02/16 05:49:12;;;;;;;11.98;8.48;;;;;;;;;;4884095;29;20056;-74
2024/02/16 05:51:40;;;;;;;5.63;5.22;;;;;;;;;;4889155;29;20047;-74
2024/02/16 05:54:07;;;;;;;7.47;6.70;;;;;;;;;;4885449;29;20197;-75
2024/02/16 05:56:34;;;;;;;12.65;9.52;;;;;;;;;;4872065;29;20029;-73
2024/02/16 05:59:00;;;;;;;9.85;6.45;;;;;;;;;;4894366;29;20100;-74
2024/02/16 06:01:27;;;;;;;9.55;7.85;;;;;;;;;;4897125;29;20507;-73
2024/02/16 06:03:53;;;;;;;7.43;6.72;;;;;;;;;;4887165;29;20513;-73
2024/02/16 06:06:19;;;;;;;10.18;9.23;;;;;;;;;;4908356;29;20111;-72
2024/02/16 06:08:45;;;;;;;11.20;8.02;;;;;;;;;;4885043;29;20099;-72
2024/02/16 06:11:11;;;;;;;7.75;6.95;;;;;;;;;;4896861;29;20035;-72
2024/02/16 06:13:36;;;;;;;10.80;7.32;;;;;;;;;;4901018;29;20156;-73
2024/02/16 06:16:04;;;;;;;10.23;9.15;;;;;;;;;;4875671;29;20701;-73
2024/02/16 06:18:30;;;;;;;9.15;7.63;;;;;;;;;;4864434;29;20045;-74
2024/02/16 06:20:56;;;;;;;6.25;5.65;;;;;;;;;;4878429;29;20567;-75
2024/02/16 06:23:22;;;;;;;7.95;7.22;;;;;;;;;;4859616;29;20449;-75
2024/02/16 06:25:48;;;;;;;6.50;5.88;;;;;;;;;;4878420;29;20062;-74
2024/02/16 06:28:14;;;;;;;3.80;3.60;;;;;;;;;;4890935;29;20570;-73
2024/02/16 06:30:39;;;;;;;6.97;6.20;;;;;;;;;;4904045;29;20120;-73
2024/02/16 06:33:06;;;;;;;6.30;5.78;;;;;;;;;;4898721;29;20101;-73
2024/02/16 06:35:32;;;;;;;7.13;5.45;;;;;;;;;;4898684;29;20028;-74
2024/02/16 06:37:57;;;;;;;11.65;8.40;;;;;;;;;;4903054;29;20055;-75
2024/02/16 06:40:24;;;;;;;7.45;6.65;;;;;;;;;;4900535;29;20037;-74
2024/02/16 06:45:35;;;;;;;7.97;6.15;;;;;;;;;;4891244;29;20044;-76
2024/02/16 06:48:21;;;;;;;4.57;4.18;;;;;;;;;;4902728;29;20087;-73
2024/02/16 06:50:47;;;;;;;7.53;6.18;;;;;;;;;;4873752;29;20519;-74
2024/02/16 06:53:12;;;;;;;6.03;5.47;;;;;;;;;;4878459;29;20039;-72
2024/02/16 06:55:39;;;;;;;11.07;9.00;;;;;;;;;;4882885;29;20044;-74
2024/02/16 06:58:05;;;;;;;6.97;6.32;;;;;;;;;;4885232;29;20397;-73
2024/02/16 07:00:30;;;;;;;6.07;5.50;;;;;;;;;;4903372;29;20074;-74
2024/02/16 07:02:56;;;;;;;9.18;6.50;;;;;;;;;;4896937;29;20087;-74
2024/02/16 07:05:22;;;;;;;5.97;5.28;;;;;;;;;;4905134;29;20044;-73
2024/02/16 07:07:49;;;;;;;7.00;5.28;;;;;;;;;;4903980;29;20131;-73
2024/02/16 07:10:16;;;;;;;5.47;5.05;;;;;;;;;;4885952;29;20049;-74
2024/02/16 07:12:57;;;;;;;9.95;7.15;;;;;;;;;;4859251;29;20560;-73
2024/02/16 07:15:22;;;;;;;15.82;7.47;;;;;;;;;;4874954;29;20041;-73
2024/02/16 07:17:48;;;;;;;10.73;7.93;;;;;;;;;;4863465;29;20102;-72
2024/02/16 07:20:16;;;;;;;10.32;8.20;;;;;;;;;;4863729;29;20041;-72
2024/02/16 07:22:42;;;;;;;17.70;11.50;;;;;;;;;;4873887;29;20076;-74
2024/02/16 07:25:08;;;;;;;11.18;8.18;;;;;;;;;;4872822;29;20504;-72
2024/02/16 07:27:34;;;;;;;8.20;7.05;;;;;;;;;;4867618;29;20152;-73
2024/02/16 07:30:00;;;;;;;11.63;8.73;;;;;;;;;;4894066;29;20112;-73
2024/02/16 07:32:26;;;;;;;9.02;7.25;;;;;;;;;;4907035;29;20100;-72
2024/02/16 07:34:52;;;;;;;8.15;7.10;;;;;;;;;;4878008;29;20657;-72
2024/02/16 07:37:18;;;;;;;11.18;9.65;;;;;;;;;;4890959;29;20059;-72
2024/02/16 07:39:44;;;;;;;7.47;6.07;;;;;;;;;;4892870;29;20052;-74
2024/02/16 07:42:09;;;;;;;7.32;5.93;;;;;;;;;;4892046;29;20032;-74
2024/02/16 07:44:36;;;;;;;15.68;11.20;;;;;;;;;;4891789;29;20045;-73
2024/02/16 07:47:02;;;;;;;9.55;8.20;;;;;;;;;;4886854;29;20041;-73
2024/02/16 07:49:28;;;;;;;11.38;7.50;;;;;;;;;;4871418;29;20381;-72
2024/02/16 07:51:54;;;;;;;8.70;7.80;;;;;;;;;;4887005;29;20041;-72
2024/02/16 07:54:19;;;;;;;8.77;7.82;;;;;;;;;;4887780;29;20416;-71
2024/02/16 07:56:45;;;;;;;11.98;8.88;;;;;;;;;;4871679;29;20076;-73
2024/02/16 07:59:11;;;;;;;12.15;8.98;;;;;;;;;;4872905;29;20686;-73
2024/02/16 08:01:38;;;;;;;10.60;8.20;;;;;;;;;;4842713;29;20064;-73
2024/02/16 08:04:04;;;;;;;7.30;5.28;;;;;;;;;;4873645;29;20037;-72
2024/02/16 08:06:30;;;;;;;9.48;7.72;;;;;;;;;;4874391;29;20443;-73
2024/02/16 08:08:56;;;;;;;10.00;7.78;;;;;;;;;;4893448;29;20045;-73
2024/02/16 08:11:22;;;;;;;21.38;14.05;;;;;;;;;;4892029;29;20040;-73
2024/02/16 08:13:48;;;;;;;12.13;8.18;;;;;;;;;;4893491;29;20139;-73
2024/02/16 08:16:14;;;;;;;7.70;7.03;;;;;;;;;;4893486;29;20127;-73
2024/02/16 08:18:39;;;;;;;15.80;10.75;;;;;;;;;;4906858;29;20052;-73
2024/02/16 08:21:05;;;;;;;6.05;5.45;;;;;;;;;;4892342;29;20048;-73
2024/02/16 08:23:31;;;;;;;12.32;8.88;;;;;;;;;;4907592;29;20048;-73
2024/02/16 08:25:57;;;;;;;8.68;7.85;;;;;;;;;;4893652;29;20087;-72
2024/02/16 08:28:23;;;;;;;9.55;8.63;;;;;;;;;;4876168;29;20044;-73
2024/02/16 08:30:50;;;;;;;12.45;6.88;;;;;;;;;;4874936;29;20040;-73
2024/02/16 08:33:15;;;;;;;8.07;6.57;;;;;;;;;;4857975;29;20033;-73
2024/02/16 08:35:41;;;;;;;12.80;9.32;;;;;;;;;;4874610;29;20275;-73
2024/02/16 08:38:10;;;;;;;20.13;13.40;;;;;;;;;;4887781;29;20550;-73
2024/02/16 08:40:39;;;;;;;7.15;6.43;;;;;;;;;;4892986;29;20044;-73
2024/02/16 08:43:07;;;;;;;6.50;4.93;;;;;;;;;;4892144;29;20055;-73
2024/02/16 08:45:33;;;;;;;6.40;5.78;;;;;;;;;;4891616;29;20055;-73
2024/02/16 08:48:01;;;;;;;4.70;4.32;;;;;;;;;;4893714;29;20046;-73
2024/02/16 08:50:27;;;;;;;9.57;7.95;;;;;;;;;;4873102;29;20053;-73
2024/02/16 08:52:54;;;;;;;11.05;7.05;;;;;;;;;;4874582;29;20053;-74
2024/02/16 08:55:20;;;;;;;9.77;7.78;;;;;;;;;;4874263;29;20044;-73
2024/02/16 08:57:46;;;;;;;8.15;7.22;;;;;;;;;;4872333;29;20049;-73
2024/02/16 09:00:12;;;;;;;18.67;12.75;;;;;;;;;;4874197;29;20576;-73
2024/02/16 09:02:38;;;;;;;14.35;7.60;;;;;;;;;;4888677;29;20037;-73
2024/02/16 09:05:04;;;;;;;9.82;6.10;;;;;;;;;;4873119;29;20055;-72
2024/02/16 09:07:30;;;;;;;13.82;10.55;;;;;;;;;;4882808;29;20396;-73
2024/02/16 09:09:56;;;;;;;8.20;7.40;;;;;;;;;;4892927;29;20036;-73
2024/02/16 09:12:22;;;;;;;17.25;10.63;;;;;;;;;;4891381;29;20550;-73
2024/02/16 09:14:51;;;;;;;6.38;5.85;;;;;;;;;;4893721;29;20040;-73
2024/02/16 09:17:19;;;;;;;10.73;8.65;;;;;;;;;;4892440;29;20036;-72
2024/02/16 09:19:45;;;;;;;8.40;7.60;;;;;;;;;;4891701;29;20049;-72
2024/02/16 09:22:10;;;;;;;10.15;8.85;;;;;;;;;;4907557;29;20064;-73
2024/02/16 09:24:37;;;;;;;10.20;7.80;;;;;;;;;;4893074;29;20044;-74
2024/02/16 09:27:05;;;;;;;13.77;7.78;;;;;;;;;;4892547;29;20092;-73
2024/02/16 09:29:31;;;;;;;8.65;7.80;;;;;;;;;;4892763;29;20580;-73
2024/02/16 09:31:57;;;;;;;11.15;8.40;;;;;;;;;;4893114;29;20475;-73
2024/02/16 09:34:23;;;;;;;13.27;7.63;;;;;;;;;;4891423;29;20044;-72
2024/02/16 09:36:49;;;;;;;15.70;9.13;;;;;;;;;;4890954;29;20040;-74
2024/02/16 09:39:15;;;;;;;13.55;10.05;;;;;;;;;;4892230;29;20082;-73
2024/02/16 09:41:43;;;;;;;17.60;11.23;;;;;;;;;;4895482;29;20629;-73
2024/02/16 09:44:10;;;;;;;11.50;7.68;;;;;;;;;;4896344;29;20068;-73
2024/02/16 09:46:36;;;;;;;9.20;6.30;;;;;;;;;;4894769;29;20045;-72
2024/02/16 09:49:02;;;;;;;10.90;9.27;;;;;;;;;;4896211;29;20462;-73
2024/02/16 09:51:30;;;;;;;6.70;6.10;;;;;;;;;;4895868;29;20602;-73
2024/02/16 09:53:56;;;;;;;13.70;10.00;;;;;;;;;;4896103;29;20140;-73
2024/02/16 09:56:22;;;;;;;8.48;7.07;;;;;;;;;;4893798;29;20061;-72
2024/02/16 09:58:48;;;;;;;20.00;12.50;;;;;;;;;;4895907;29;20040;-73
2024/02/16 10:01:17;;;;;;;10.60;8.73;;;;;;;;;;4895737;29;20542;-73
2024/02/16 10:03:43;;;;;;;15.90;9.73;;;;;;;;;;4894874;29;20033;-73
2024/02/16 10:06:10;;;;;;;12.43;6.78;;;;;;;;;;4896329;29;20472;-73
2024/02/16 10:09:02;;;;;;;12.93;9.82;;;;;;;;;;4895097;29;20047;-73
2024/02/16 10:11:28;;;;;;;11.93;8.60;;;;;;;;;;4895616;29;20051;-73
2024/02/16 10:13:55;;;;;;;11.40;7.95;;;;;;;;;;4895448;29;20059;-72
2024/02/16 10:16:21;;;;;;;11.18;9.98;;;;;;;;;;4894522;29;20092;-73
2024/02/16 10:18:47;;;;;;;16.95;10.73;;;;;;;;;;4895815;29;20052;-72
2024/02/16 10:21:13;;;;;;;15.02;9.48;;;;;;;;;;4895632;29;20036;-73
2024/02/16 10:23:39;;;;;;;16.05;9.43;;;;;;;;;;4894150;29;20389;-73
2024/02/16 10:26:05;;;;;;;14.27;10.93;;;;;;;;;;4895233;29;20397;-73
2024/02/16 10:28:31;;;;;;;13.48;8.60;;;;;;;;;;4893189;29;20056;-73
2024/02/16 10:30:57;;;;;;;13.23;10.68;;;;;;;;;;4895305;29;20040;-73
2024/02/16 10:33:24;;;;;;;12.65;8.95;;;;;;;;;;4895076;29;20503;-73
2024/02/16 10:38:38;;;;;;;13.73;9.95;;;;;;;;;;4894115;29;20052;-72
2024/02/16 10:41:05;;;;;;;8.98;7.82;;;;;;;;;;4893719;29;20139;-73
2024/02/16 10:43:31;;;;;;;20.33;13.32;;;;;;;;;;4909390;29;20041;-73
2024/02/16 10:45:57;;;;;;;12.23;9.40;;;;;;;;;;4909870;29;20037;-73
2024/02/16 10:48:23;;;;;;;7.90;7.15;;;;;;;;;;4893109;29;20140;-72
2024/02/16 10:50:50;;;;;;;13.55;8.43;;;;;;;;;;4895019;29;20029;-73
2024/02/16 10:53:16;;;;;;;12.63;8.85;;;;;;;;;;4894014;29;20102;-73
2024/02/16 10:55:43;;;;;;;15.30;9.70;;;;;;;;;;4893448;29;20064;-73
2024/02/16 10:58:12;;;;;;;12.23;10.25;;;;;;;;;;4908021;29;20059;-73
2024/02/16 11:00:51;;;;;;;14.27;9.43;;;;;;;;;;4893474;29;20074;-73
2024/02/16 11:03:17;;;;;;;15.85;11.68;;;;;;;;;;4893448;29;20424;-73
2024/02/16 11:05:45;;;;;;;21.05;13.27;;;;;;;;;;4895051;29;20060;-73
2024/02/16 11:08:12;;;;;;;10.15;7.55;;;;;;;;;;4896158;29;20088;-74
2024/02/16 11:10:38;;;;;;;12.07;10.18;;;;;;;;;;4910997;29;20126;-73
2024/02/16 11:13:04;;;;;;;8.52;7.70;;;;;;;;;;4895065;29;20141;-74
2024/02/16 11:15:34;;;;;;;13.25;7.25;;;;;;;;;;4909283;29;20075;-73
2024/02/16 11:18:03;;;;;;;11.50;7.38;;;;;;;;;;4909736;29;20044;-73
2024/02/16 11:20:29;;;;;;;11.57;8.60;;;;;;;;;;4894227;29;20596;-72
2024/02/16 11:23:06;;;;;;;12.82;9.82;;;;;;;;;;4909291;29;20048;-73
2024/02/16 11:25:32;;;;;;;7.22;6.50;;;;;;;;;;4893101;29;20048;-73
2024/02/16 11:27:58;;;;;;;16.00;10.18;;;;;;;;;;4892843;29;20052;-72
2024/02/16 11:30:24;;;;;;;17.80;8.52;;;;;;;;;;4893217;29;20075;-72
2024/02/16 11:32:51;;;;;;;7.80;7.00;;;;;;;;;;4893379;29;20032;-72
2024/02/16 11:35:17;;;;;;;11.15;8.75;;;;;;;;;;4894089;29;20059;-72
2024/02/16 11:37:43;;;;;;;12.48;7.10;;;;;;;;;;4891881;29;20048;-72
2024/02/16 11:40:11;;;;;;;11.52;8.43;;;;;;;;;;4892670;29;20563;-73
2024/02/16 11:42:37;;;;;;;10.15;8.20;;;;;;;;;;4892679;29;20033;-72
2024/02/16 11:45:03;;;;;;;13.73;10.25;;;;;;;;;;4893923;29;20036;-73
2024/02/16 11:47:29;;;;;;;8.23;7.00;;;;;;;;;;4891574;29;20344;-73
2024/02/16 11:50:03;;;;;;;8.80;7.90;;;;;;;;;;4893973;29;20032;-73
2024/02/16 11:52:32;;;;;;;8.55;7.78;;;;;;;;;;4892376;29;20040;-72
2024/02/16 11:55:01;;;;;;;9.15;7.90;;;;;;;;;;4877100;29;20040;-73
2024/02/16 11:57:27;;;;;;;10.20;7.90;;;;;;;;;;4891536;29;20044;-72
2024/02/16 11:59:53;;;;;;;16.00;9.52;;;;;;;;;;4892566;29;20096;-73
2024/02/16 12:02:20;;;;;;;10.15;8.00;;;;;;;;;;4892531;29;20033;-73
2024/02/16 12:04:46;;;;;;;9.40;8.45;;;;;;;;;;4907664;29;20052;-74
2024/02/16 12:07:16;;;;;;;13.00;11.18;;;;;;;;;;4892202;29;20100;-72
2024/02/16 12:09:42;;;;;;;7.43;6.55;;;;;;;;;;4892437;29;20037;-73
2024/02/16 12:12:08;;;;;;;21.52;12.15;;;;;;;;;;4892436;29;20555;-73
2024/02/16 12:14:34;;;;;;;18.65;11.60;;;;;;;;;;4893450;29;20052;-73
2024/02/16 12:17:00;;;;;;;14.80;9.00;;;;;;;;;;4907311;29;20064;-74
2024/02/16 12:19:25;;;;;;;8.48;7.68;;;;;;;;;;4891786;29;20504;-73
2024/02/16 12:21:51;;;;;;;22.65;13.30;;;;;;;;;;4893684;29;20035;-73
2024/02/16 12:24:18;;;;;;;13.15;10.63;;;;;;;;;;4892209;29;20084;-74
2024/02/16 12:26:43;;;;;;;7.68;5.80;;;;;;;;;;4906816;29;20046;-74
2024/02/16 12:29:12;;;;;;;9.93;8.93;;;;;;;;;;4893543;29;20036;-73
2024/02/16 12:31:40;;;;;;;15.07;10.75;;;;;;;;;;4891909;29;20119;-74
2024/02/16 12:34:07;;;;;;;7.63;6.63;;;;;;;;;;4892204;29;20081;-73
2024/02/16 12:36:36;;;;;;;13.38;9.07;;;;;;;;;;4891988;29;20037;-74
2024/02/16 12:39:03;;;;;;;8.50;7.65;;;;;;;;;;4893445;29;20132;-75
2024/02/16 12:41:38;;;;;;;7.85;6.72;;;;;;;;;;4893082;29;20119;-73
2024/02/16 12:44:04;;;;;;;8.60;7.80;;;;;;;;;;4886198;29;20044;-73
2024/02/16 12:46:31;;;;;;;11.15;8.68;;;;;;;;;;4888359;29;20063;-73
2024/02/16 12:48:57;;;;;;;11.88;8.50;;;;;;;;;;4906246;29;20056;-72
2024/02/16 12:51:23;;;;;;;11.43;7.60;;;;;;;;;;4891991;29;20124;-73
2024/02/16 12:53:49;;;;;;;8.25;7.22;;;;;;;;;;4877161;29;20044;-72
2024/02/16 12:56:15;;;;;;;9.68;7.78;;;;;;;;;;4893010;29;20028;-72
2024/02/16 12:58:41;;;;;;;13.93;11.70;;;;;;;;;;4891663;29;20056;-72
2024/02/16 13:01:07;;;;;;;9.60;7.22;;;;;;;;;;4892856;29;20040;-73
2024/02/16 13:03:33;;;;;;;11.25;7.70;;;;;;;;;;4890886;29;20029;-73
2024/02/16 13:08:44;;;;;;;8.98;6.45;;;;;;;;;;4874099;29;20429;-72
2024/02/16 13:11:10;;;;;;;11.48;8.02;;;;;;;;;;4868626;29;20036;-73
2024/02/16 13:13:36;;;;;;;13.95;9.38;;;;;;;;;;4870355;29;20056;-74
2024/02/16 13:16:02;;;;;;;9.13;6.88;;;;;;;;;;4872967;29;20037;-74
2024/02/16 13:18:28;;;;;;;5.97;5.45;;;;;;;;;;4878070;29;20060;-75
2024/02/16 13:20:54;;;;;;;7.15;6.43;;;;;;;;;;4876742;29;20037;-74
2024/02/16 13:23:21;;;;;;;13.60;6.47;;;;;;;;;;4860546;29;20583;-73
2024/02/16 13:25:47;;;;;;;14.73;9.45;;;;;;;;;;4873829;29;20033;-74
2024/02/16 13:28:13;;;;;;;8.35;5.65;;;;;;;;;;4874953;29;20036;-75
2024/02/16 13:30:39;;;;;;;13.60;8.98;;;;;;;;;;4891202;29;20064;-74
2024/02/16 13:33:05;;;;;;;25.92;13.02;;;;;;;;;;4875383;29;20412;-74
2024/02/16 13:35:31;;;;;;;7.25;6.43;;;;;;;;;;4876989;29;20120;-74
2024/02/16 13:37:56;;;;;;;13.65;9.80;;;;;;;;;;4905146;29;20574;-75
2024/02/16 13:40:23;;;;;;;7.03;5.82;;;;;;;;;;4894779;29;20127;-74
2024/02/16 13:42:49;;;;;;;12.90;9.43;;;;;;;;;;4894338;29;20033;-75
2024/02/16 13:45:15;;;;;;;6.65;5.72;;;;;;;;;;4894947;29;20075;-73
2024/02/16 13:47:41;;;;;;;16.48;9.52;;;;;;;;;;4893313;29;20040;-73
2024/02/16 13:50:07;;;;;;;13.50;9.27;;;;;;;;;;4895627;29;20040;-73
2024/02/16 13:52:34;;;;;;;12.70;7.15;;;;;;;;;;4894130;29;20044;-72
2024/02/16 13:55:00;;;;;;;13.00;8.05;;;;;;;;;;4910166;29;20033;-72
2024/02/16 13:57:25;;;;;;;14.55;9.10;;;;;;;;;;4887706;29;20060;-73
2024/02/16 13:59:51;;;;;;;20.45;11.02;;;;;;;;;;4875196;29;20044;-73
2024/02/16 14:02:17;;;;;;;9.15;7.43;;;;;;;;;;4881198;29;20048;-73
2024/02/16 14:04:43;;;;;;;18.33;8.82;;;;;;;;;;4868244;29;20081;-75
2024/02/16 14:07:10;;;;;;;5.18;4.18;;;;;;;;;;4891047;29;20381;-75
2024/02/16 14:09:36;;;;;;;9.52;7.70;;;;;;;;;;4853003;29;20596;-74
2024/02/16 14:12:02;;;;;;;6.68;6.13;;;;;;;;;;4868347;29;20041;-73
2024/02/16 14:14:28;;;;;;;9.00;8.13;;;;;;;;;;4868487;29;20546;-74
2024/02/16 14:16:54;;;;;;;11.93;6.13;;;;;;;;;;4888806;29;20084;-73
2024/02/16 14:19:20;;;;;;;10.10;6.65;;;;;;;;;;4909106;29;20064;-73
2024/02/16 14:21:47;;;;;;;11.15;7.15;;;;;;;;;;4893057;29;20106;-72
2024/02/16 14:24:13;;;;;;;8.45;6.20;;;;;;;;;;4909266;29;20035;-74
2024/02/16 14:26:39;;;;;;;11.27;7.55;;;;;;;;;;4907258;29;20041;-73
2024/02/16 14:29:07;;;;;;;10.15;8.48;;;;;;;;;;4894592;29;20035;-73
2024/02/16 14:31:33;;;;;;;14.32;9.77;;;;;;;;;;4892527;29;20056;-74
2024/02/16 14:33:59;;;;;;;4.38;3.78;;;;;;;;;;4863176;29;20112;-73
2024/02/16 14:36:25;;;;;;;19.30;9.98;;;;;;;;;;4890389;29;20045;-73
2024/02/16 14:38:51;;;;;;;8.63;7.70;;;;;;;;;;4854668;29;20101;-78